createdAt,value
2018-02-21T00:00:00.458Z,69.23
2018-02-21T00:02:30.932Z,67.97
2018-02-21T00:04:57.227Z,67.90
2018-02-21T00:07:23.502Z,71.93
2018-02-21T00:09:50.524Z,68.30
2018-02-21T00:12:19.828Z,65.87
2018-02-21T00:14:46.857Z,67.50
2018-02-21T00:17:13.129Z,67.50
2018-02-21T00:19:39.400Z,64.23
2018-02-21T00:22:11.810Z,65.50
2018-02-21T00:24:38.072Z,65.37
2018-02-21T00:27:05.064Z,73.33
2018-02-21T00:29:31.424Z,65.10
2018-02-21T00:31:57.676Z,67.87
2018-02-21T00:34:23.946Z,71.27
2018-02-21T00:36:50.266Z,70.60
2018-02-21T00:39:17.458Z,75.97
2018-02-21T00:41:44.608Z,70.53
2018-02-21T00:44:11.151Z,65.57
2018-02-21T00:46:37.423Z,70.23
2018-02-21T00:49:04.471Z,74.00
2018-02-21T00:51:31.507Z,79.00
2018-02-21T00:53:57.834Z,82.73
2018-02-21T00:56:24.053Z,75.53
2018-02-21T00:58:50.341Z,68.63
2018-02-21T01:01:16.590Z,77.00
2018-02-21T01:03:42.910Z,75.40
2018-02-21T01:06:09.195Z,74.73
2018-02-21T01:08:36.193Z,75.10
2018-02-21T01:11:04.654Z,75.50
2018-02-21T01:13:31.669Z,76.63
2018-02-21T01:15:57.914Z,79.73
2018-02-21T01:18:24.226Z,76.47
2018-02-21T01:20:50.497Z,77.90
2018-02-21T01:23:25.543Z,81.73
2018-02-21T01:25:52.437Z,76.53
2018-02-21T01:28:20.462Z,67.67
2018-02-21T01:30:46.826Z,71.10
2018-02-21T01:33:13.086Z,76.10
2018-02-21T01:35:39.360Z,77.53
2018-02-21T01:38:05.620Z,74.50
2018-02-21T01:40:31.873Z,70.93
2018-02-21T01:42:58.080Z,63.47
2018-02-21T01:45:24.401Z,74.97
2018-02-21T01:47:50.719Z,67.00
2018-02-21T01:50:16.956Z,67.80
2018-02-21T01:52:43.230Z,75.13
2018-02-21T01:55:09.460Z,71.13
2018-02-21T01:57:35.729Z,70.80
2018-02-21T02:00:02.058Z,59.40
2018-02-21T02:02:29.028Z,77.33
2018-02-21T02:04:56.048Z,74.07
2018-02-21T02:07:22.285Z,64.70
2018-02-21T02:09:48.545Z,75.40
2018-02-21T02:12:14.818Z,64.33
2018-02-21T02:14:41.078Z,64.33
2018-02-21T02:17:07.330Z,70.87
2018-02-21T02:19:33.598Z,67.07
2018-02-21T02:21:59.910Z,64.07
2018-02-21T02:24:26.168Z,66.80
2018-02-21T02:26:53.195Z,64.37
2018-02-21T02:29:19.444Z,71.93
2018-02-21T02:31:45.712Z,59.20
2018-02-21T02:34:11.968Z,63.60
2018-02-21T02:36:38.335Z,62.97
2018-02-21T02:39:17.796Z,65.57
2018-02-21T02:41:44.782Z,65.07
2018-02-21T02:44:11.006Z,71.27
2018-02-21T02:46:37.272Z,64.07
2018-02-21T02:49:03.517Z,60.27
2018-02-21T02:51:29.805Z,60.83
2018-02-21T02:53:59.617Z,60.17
2018-02-21T02:56:25.893Z,60.30
2018-02-21T02:58:52.177Z,61.33
2018-02-21T03:01:19.128Z,57.97
2018-02-21T03:03:45.343Z,59.77
2018-02-21T03:06:11.553Z,65.53
2018-02-21T03:08:38.558Z,55.90
2018-02-21T03:11:05.900Z,56.17
2018-02-21T03:13:32.160Z,54.97
2018-02-21T03:15:58.470Z,56.23
2018-02-21T03:18:25.485Z,59.87
2018-02-21T03:20:51.776Z,57.90
2018-02-21T03:23:18.014Z,56.20
2018-02-21T03:25:45.035Z,53.63
2018-02-21T03:28:11.327Z,55.00
2018-02-21T03:30:38.297Z,52.87
2018-02-21T03:33:04.544Z,54.53
2018-02-21T03:35:30.845Z,59.00
2018-02-21T03:37:57.063Z,52.80
2018-02-21T03:40:23.303Z,51.57
2018-02-21T03:42:49.568Z,54.93
2018-02-21T03:45:15.828Z,53.03
2018-02-21T03:47:42.839Z,54.37
2018-02-21T03:50:09.067Z,54.90
2018-02-21T03:52:35.311Z,54.27
2018-02-21T03:55:01.568Z,52.43
2018-02-21T03:57:27.844Z,60.37
2018-02-21T03:59:54.946Z,52.37
2018-02-21T04:02:21.200Z,56.10
2018-02-21T04:04:47.468Z,51.60
2018-02-21T04:07:13.725Z,53.50
2018-02-21T04:09:40.778Z,53.70
2018-02-21T04:12:07.038Z,55.30
2018-02-21T04:14:33.339Z,51.87
2018-02-21T04:16:59.561Z,55.43
2018-02-21T04:19:25.820Z,55.63
2018-02-21T04:21:52.061Z,57.97
2018-02-21T04:24:18.389Z,53.00
2018-02-21T04:26:44.636Z,54.13
2018-02-21T04:29:10.884Z,58.17
2018-02-21T04:31:37.278Z,60.60
2018-02-21T04:34:03.551Z,52.23
2018-02-21T04:36:29.779Z,55.93
2018-02-21T04:38:56.035Z,52.83
2018-02-21T04:41:22.370Z,58.77
2018-02-21T04:43:48.654Z,52.43
2018-02-21T04:46:14.886Z,52.73
2018-02-21T04:48:41.189Z,55.10
2018-02-21T04:51:07.603Z,53.40
2018-02-21T04:53:34.652Z,49.63
2018-02-21T04:56:06.957Z,57.80
2018-02-21T04:58:44.862Z,54.47
2018-02-21T05:01:11.167Z,58.17
2018-02-21T05:03:37.482Z,62.53
2018-02-21T05:06:03.700Z,57.60
2018-02-21T05:08:30.685Z,58.97
2018-02-21T05:10:56.925Z,60.43
2018-02-21T05:13:23.209Z,58.43
2018-02-21T05:15:49.456Z,62.80
2018-02-21T05:18:15.800Z,65.07
2018-02-21T05:20:42.082Z,59.10
2018-02-21T05:23:08.382Z,66.83
2018-02-21T05:25:34.648Z,60.63
2018-02-21T05:28:01.642Z,64.60
2018-02-21T05:30:27.929Z,61.80
2018-02-21T05:32:54.199Z,66.90
2018-02-21T05:35:20.478Z,62.27
2018-02-21T05:37:47.484Z,57.90
2018-02-21T05:40:14.498Z,67.77
2018-02-21T05:42:40.762Z,59.77
2018-02-21T05:45:07.075Z,67.73
2018-02-21T05:47:33.340Z,64.53
2018-02-21T05:49:59.579Z,69.30
2018-02-21T05:52:25.877Z,63.27
2018-02-21T05:54:52.428Z,61.23
2018-02-21T05:57:18.708Z,70.30
2018-02-21T06:00:00.741Z,59.20
2018-02-21T06:02:27.057Z,66.07
2018-02-21T06:04:53.315Z,69.17
2018-02-21T06:07:19.657Z,63.50
2018-02-21T06:09:45.954Z,58.93
2018-02-21T06:12:12.214Z,61.13
2018-02-21T06:14:38.494Z,66.53
2018-02-21T06:17:04.744Z,67.20
2018-02-21T06:19:30.981Z,72.07
2018-02-21T06:21:57.216Z,62.40
2018-02-21T06:24:23.543Z,62.23
2018-02-21T06:26:50.565Z,72.90
2018-02-21T06:29:16.792Z,71.13
2018-02-21T06:31:44.895Z,78.33
2018-02-21T06:34:12.205Z,68.27
2018-02-21T06:36:40.460Z,71.97
2018-02-21T06:39:06.749Z,71.37
2018-02-21T06:41:33.026Z,70.77
2018-02-21T06:43:59.294Z,71.57
2018-02-21T06:46:25.594Z,70.30
2018-02-21T06:48:52.602Z,72.00
2018-02-21T06:51:18.882Z,67.17
2018-02-21T06:53:45.899Z,67.63
2018-02-21T06:56:12.201Z,79.43
2018-02-21T06:58:39.168Z,79.27
2018-02-21T07:01:05.411Z,72.83
2018-02-21T07:03:31.699Z,71.17
2018-02-21T07:06:00.099Z,70.90
2018-02-21T07:08:26.401Z,76.20
2018-02-21T07:10:52.701Z,77.90
2018-02-21T07:13:18.970Z,76.53
2018-02-21T07:15:45.333Z,74.40
2018-02-21T07:18:11.610Z,70.50
2018-02-21T07:20:37.995Z,77.33
2018-02-21T07:23:04.324Z,68.67
2018-02-21T07:25:37.324Z,74.47
2018-02-21T07:28:03.578Z,73.57
2018-02-21T07:30:30.609Z,73.57
2018-02-21T07:32:56.912Z,78.07
2018-02-21T07:35:23.188Z,74.17
2018-02-21T07:37:49.737Z,74.50
2018-02-21T07:40:16.010Z,81.47
2018-02-21T07:42:42.261Z,85.63
2018-02-21T07:45:09.269Z,75.13
2018-02-21T07:47:35.579Z,72.47
2018-02-21T07:50:01.883Z,75.10
2018-02-21T07:52:28.898Z,72.53
2018-02-21T07:54:55.184Z,73.73
2018-02-21T07:57:28.490Z,79.63
2018-02-21T07:59:54.708Z,71.50
2018-02-21T08:02:21.103Z,74.13
2018-02-21T08:04:47.405Z,65.57
2018-02-21T08:07:13.698Z,67.57
2018-02-21T08:09:39.938Z,62.93
2018-02-21T08:12:06.221Z,73.43
2018-02-21T08:14:32.636Z,74.67
2018-02-21T08:16:58.902Z,68.13
2018-02-21T08:19:25.193Z,73.77
2018-02-21T08:21:54.323Z,68.60
2018-02-21T08:24:20.655Z,74.20
2018-02-21T08:26:46.908Z,71.33
2018-02-21T08:29:13.214Z,69.63
2018-02-21T08:31:40.229Z,72.27
2018-02-21T08:34:06.525Z,72.33
2018-02-21T08:36:32.785Z,65.67
2018-02-21T08:38:59.093Z,69.47
2018-02-21T08:41:25.386Z,69.17
2018-02-21T08:43:51.654Z,66.00
2018-02-21T08:46:18.670Z,64.77
2018-02-21T08:48:44.922Z,57.67
2018-02-21T08:51:11.233Z,65.53
2018-02-21T08:53:38.246Z,66.73
2018-02-21T08:56:04.473Z,73.40
2018-02-21T08:58:30.767Z,67.30
2018-02-21T09:00:57.746Z,65.17
2018-02-21T09:03:24.061Z,72.40
2018-02-21T09:05:51.078Z,69.63
2018-02-21T09:08:17.354Z,73.50
2018-02-21T09:10:43.613Z,75.90
2018-02-21T09:13:10.687Z,74.73
2018-02-21T09:15:37.001Z,75.07
2018-02-21T09:18:03.351Z,73.13
2018-02-21T09:20:29.637Z,79.47
2018-02-21T09:22:55.919Z,73.50
2018-02-21T09:25:22.230Z,70.50
2018-02-21T09:27:48.584Z,74.47
2018-02-21T09:30:14.932Z,84.10
2018-02-21T09:32:41.233Z,63.50
2018-02-21T09:35:07.531Z,78.13
2018-02-21T09:37:33.810Z,76.83
2018-02-21T09:40:00.851Z,74.00
2018-02-21T09:42:27.181Z,71.03
2018-02-21T09:44:53.655Z,62.73
2018-02-21T09:47:19.982Z,69.23
2018-02-21T09:49:47.373Z,66.23
2018-02-21T09:52:14.461Z,71.67
2018-02-21T09:54:40.785Z,69.57
2018-02-21T09:57:07.037Z,65.33
2018-02-21T09:59:33.325Z,57.50
2018-02-21T10:01:59.624Z,63.73
2018-02-21T10:04:26.017Z,67.83
2018-02-21T10:06:53.170Z,64.87
2018-02-21T10:09:19.646Z,67.37
2018-02-21T10:11:46.700Z,71.07
2018-02-21T10:14:13.814Z,69.53
2018-02-21T10:16:40.111Z,62.80
2018-02-21T10:19:07.124Z,69.17
2018-02-21T10:21:33.378Z,66.43
2018-02-21T10:23:59.659Z,71.93
2018-02-21T10:26:25.969Z,67.37
2018-02-21T10:28:53.067Z,70.13
2018-02-21T10:31:20.194Z,65.20
2018-02-21T10:33:48.162Z,70.57
2018-02-21T10:36:14.459Z,65.50
2018-02-21T10:38:40.762Z,63.10
2018-02-21T10:41:14.254Z,67.20
2018-02-21T10:43:40.546Z,73.07
2018-02-21T10:46:06.836Z,63.10
2018-02-21T10:48:33.136Z,72.13
2018-02-21T10:51:00.210Z,61.87
2018-02-21T10:53:26.515Z,56.40
2018-02-21T10:55:52.779Z,65.70
2018-02-21T10:58:19.872Z,64.67
2018-02-21T11:00:52.307Z,68.37
2018-02-21T11:03:18.609Z,60.47
2018-02-21T11:05:44.862Z,66.70
2018-02-21T11:08:11.177Z,61.70
2018-02-21T11:10:37.477Z,68.43
2018-02-21T11:13:04.779Z,68.27
2018-02-21T11:15:31.039Z,61.57
2018-02-21T11:17:57.387Z,62.17
2018-02-21T11:20:23.705Z,69.23
2018-02-21T11:22:50.003Z,57.37
2018-02-21T11:25:16.261Z,64.33
2018-02-21T11:27:43.269Z,61.63
2018-02-21T11:30:09.594Z,66.33
2018-02-21T11:32:36.015Z,59.83
2018-02-21T11:35:02.319Z,67.83
2018-02-21T11:37:28.610Z,61.10
2018-02-21T11:39:55.088Z,58.73
2018-02-21T11:42:21.351Z,59.07
2018-02-21T11:44:47.618Z,63.80
2018-02-21T11:47:14.685Z,64.70
2018-02-21T11:49:46.074Z,71.23
2018-02-21T11:52:12.399Z,62.80
2018-02-21T11:54:39.530Z,58.33
2018-02-21T11:57:05.800Z,58.33
2018-02-21T11:59:32.186Z,56.10
2018-02-21T12:02:01.950Z,61.63
2018-02-21T12:04:28.216Z,62.83
2018-02-21T12:06:54.480Z,60.43
2018-02-21T12:09:20.791Z,59.43
2018-02-21T12:11:48.802Z,63.93
2018-02-21T12:14:15.036Z,62.33
2018-02-21T12:16:41.298Z,60.10
2018-02-21T12:19:07.664Z,51.90
2018-02-21T12:21:34.019Z,57.90
2018-02-21T12:24:00.276Z,53.50
2018-02-21T12:26:26.574Z,53.50
2018-02-21T12:28:52.829Z,58.43
2018-02-21T12:31:20.332Z,57.77
2018-02-21T12:33:51.254Z,57.40
2018-02-21T12:36:18.322Z,61.40
2018-02-21T12:41:44.503Z,59.60
2018-02-21T12:44:10.836Z,56.60
2018-02-21T12:46:37.081Z,56.20
2018-02-21T12:49:03.245Z,54.27
2018-02-21T12:51:29.410Z,49.97
2018-02-21T12:53:55.563Z,53.47
2018-02-21T12:56:21.733Z,54.37
2018-02-21T12:58:47.925Z,51.87
2018-02-21T13:01:14.139Z,52.67
2018-02-21T13:03:41.300Z,53.23
2018-02-21T13:06:07.517Z,52.60
2018-02-21T13:08:33.788Z,57.27
2018-02-21T13:11:00.721Z,52.60
2018-02-21T13:13:26.937Z,51.70
2018-02-21T13:15:53.149Z,54.07
2018-02-21T13:18:20.091Z,55.50
2018-02-21T13:20:46.277Z,56.97
2018-02-21T13:23:13.545Z,52.07
2018-02-21T13:25:40.029Z,51.07
2018-02-21T13:28:06.216Z,51.07
2018-02-21T13:30:32.359Z,52.40
2018-02-21T13:32:58.631Z,55.20
2018-02-21T13:35:28.955Z,53.50
2018-02-21T13:37:55.300Z,53.27
2018-02-21T13:40:21.509Z,51.53
2018-02-21T13:42:47.652Z,52.50
2018-02-21T13:45:19.409Z,48.53
2018-02-21T13:47:45.625Z,44.97
2018-02-21T13:50:11.821Z,46.57
2018-02-21T13:52:37.973Z,43.70
2018-02-21T13:55:04.151Z,54.50
2018-02-21T13:57:31.101Z,45.77
2018-02-21T13:59:57.233Z,46.47
2018-02-21T14:02:23.450Z,46.87
2018-02-21T14:04:51.811Z,43.50
2018-02-21T14:07:17.975Z,44.97
2018-02-21T14:09:44.117Z,44.10
2018-02-21T14:12:10.312Z,45.80
2018-02-21T14:14:37.197Z,46.83
2018-02-21T14:17:03.339Z,42.80
2018-02-21T14:19:34.027Z,43.50
2018-02-21T14:22:00.183Z,43.93
2018-02-21T14:24:27.100Z,41.43
2018-02-21T14:26:53.543Z,42.20
2018-02-21T14:29:19.724Z,49.13
2018-02-21T14:31:46.626Z,45.60
2018-02-21T14:34:12.759Z,43.80
2018-02-21T14:36:38.927Z,48.60
2018-02-21T14:39:05.083Z,43.63
2018-02-21T14:41:31.270Z,45.67
2018-02-21T14:43:57.449Z,44.70
2018-02-21T14:46:27.420Z,42.93
2018-02-21T14:48:54.861Z,43.07
2018-02-21T14:51:21.819Z,42.27
2018-02-21T14:53:48.725Z,41.10
2018-02-21T14:56:14.894Z,40.40
2018-02-21T14:58:41.044Z,40.67
2018-02-21T15:01:07.216Z,38.50
2018-02-21T15:03:34.102Z,35.33
2018-02-21T15:06:00.238Z,37.23
2018-02-21T15:08:26.482Z,37.27
2018-02-21T15:10:52.654Z,34.73
2018-02-21T15:13:18.788Z,30.20
2018-02-21T15:15:44.956Z,37.23
2018-02-21T15:18:11.849Z,35.60
2018-02-21T15:20:38.030Z,35.67
2018-02-21T15:23:04.179Z,34.13
2018-02-21T15:25:31.136Z,36.13
2018-02-21T15:27:57.318Z,32.13
2018-02-21T15:30:23.564Z,33.53
2018-02-21T15:32:49.777Z,37.50
2018-02-21T15:35:15.962Z,38.23
2018-02-21T15:37:42.914Z,35.27
2018-02-21T15:40:09.089Z,36.17
2018-02-21T15:42:35.277Z,34.67
2018-02-21T15:45:01.421Z,34.57
2018-02-21T15:47:27.590Z,37.37
2018-02-21T15:49:53.783Z,36.03
2018-02-21T15:52:20.749Z,37.63
2018-02-21T15:54:46.941Z,37.30
2018-02-21T15:57:13.101Z,36.23
2018-02-21T15:59:40.035Z,36.57
2018-02-21T16:02:06.198Z,31.00
2018-02-21T16:04:33.127Z,34.70
2018-02-21T16:06:59.346Z,34.57
2018-02-21T16:09:25.575Z,34.63
2018-02-21T16:11:51.807Z,32.90
2018-02-21T16:14:20.047Z,34.67
2018-02-21T16:16:46.202Z,34.80
2018-02-21T16:19:12.409Z,34.10
2018-02-21T16:21:40.230Z,33.00
2018-02-21T16:24:06.459Z,33.00
2018-02-21T16:26:33.454Z,31.77
2018-02-21T16:28:59.605Z,32.40
2018-02-21T16:31:25.800Z,32.37
2018-02-21T16:33:52.055Z,31.47
2018-02-21T16:36:18.293Z,30.23
2018-02-21T16:38:44.487Z,30.83
2018-02-21T16:41:10.665Z,34.53
2018-02-21T16:43:37.585Z,32.60
2018-02-21T16:46:03.766Z,30.33
2018-02-21T16:48:30.675Z,31.03
2018-02-21T16:50:57.008Z,33.13
2018-02-21T16:53:23.309Z,29.37
2018-02-21T16:55:50.250Z,30.30
2018-02-21T16:58:17.241Z,31.23
2018-02-21T17:00:43.382Z,32.00
2018-02-21T17:03:09.573Z,29.83
2018-02-21T17:05:35.731Z,28.53
2018-02-21T17:08:01.892Z,29.37
2018-02-21T17:10:28.123Z,29.87
2018-02-21T17:12:55.072Z,28.90
2018-02-21T17:15:22.145Z,28.33
2018-02-21T17:17:48.328Z,24.83
2018-02-21T17:20:14.521Z,24.83
2018-02-21T17:22:41.449Z,23.03
2018-02-21T17:25:10.917Z,23.87
2018-02-21T17:27:37.117Z,23.90
2018-02-21T17:30:03.302Z,25.43
2018-02-21T17:32:34.463Z,23.07
2018-02-21T17:35:00.617Z,22.50
2018-02-21T17:37:26.905Z,21.63
2018-02-21T17:39:57.265Z,25.87
2018-02-21T17:42:23.456Z,25.57
2018-02-21T17:44:49.685Z,23.30
2018-02-21T17:47:15.887Z,19.07
2018-02-21T17:49:42.069Z,22.77
2018-02-21T17:52:08.267Z,21.27
2018-02-21T17:54:34.473Z,24.30
2018-02-21T17:57:21.615Z,20.57
2018-02-21T17:59:47.818Z,23.53
2018-02-21T18:02:14.003Z,21.67
2018-02-21T18:04:40.966Z,22.77
2018-02-21T18:07:07.900Z,23.00
2018-02-21T18:09:34.091Z,24.77
2018-02-21T18:12:00.241Z,24.47
2018-02-21T18:14:28.020Z,26.63
2018-02-21T18:16:54.236Z,23.73
2018-02-21T18:19:22.551Z,23.70
2018-02-21T18:21:48.766Z,22.97
2018-02-21T18:24:15.017Z,24.90
2018-02-21T18:26:48.162Z,24.87
2018-02-21T18:29:14.318Z,23.73
2018-02-21T18:31:41.227Z,23.20
2018-02-21T18:34:07.490Z,21.67
2018-02-21T18:36:33.682Z,24.70
2018-02-21T18:38:59.861Z,27.47
2018-02-21T18:41:27.135Z,22.77
2018-02-21T18:43:53.423Z,26.20
2018-02-21T18:46:19.639Z,22.33
2018-02-21T18:48:46.666Z,23.20
2018-02-21T18:51:12.891Z,24.57
2018-02-21T18:53:39.033Z,23.90
2018-02-21T18:56:05.265Z,27.23
2018-02-21T18:58:31.399Z,27.57
2018-02-21T19:00:57.564Z,32.93
2018-02-21T19:03:23.740Z,26.97
2018-02-21T19:05:50.868Z,28.47
2018-02-21T19:08:17.040Z,29.53
2018-02-21T19:10:43.222Z,29.77
2018-02-21T19:13:09.403Z,28.20
2018-02-21T19:15:35.585Z,28.67
2018-02-21T19:18:01.858Z,31.10
2018-02-21T19:20:28.033Z,27.10
2018-02-21T19:22:56.326Z,28.67
2018-02-21T19:25:22.516Z,27.27
2018-02-21T19:27:48.707Z,28.97
2018-02-21T19:30:14.853Z,29.20
2018-02-21T19:32:41.059Z,30.37
2018-02-21T19:35:07.227Z,27.30
2018-02-21T19:37:33.387Z,26.77
2018-02-21T19:40:00.301Z,26.83
2018-02-21T19:42:52.064Z,29.27
2018-02-21T19:45:18.272Z,26.50
2018-02-21T19:47:44.430Z,25.47
2018-02-21T19:50:10.724Z,28.93
2018-02-21T19:52:36.917Z,28.40
2018-02-21T19:55:03.124Z,30.40
2018-02-21T19:57:29.354Z,26.20
2018-02-21T19:59:55.668Z,30.77
2018-02-21T20:02:22.621Z,27.30
2018-02-21T20:04:49.572Z,27.43
2018-02-21T20:07:16.465Z,28.07
2018-02-21T20:09:42.655Z,26.67
2018-02-21T20:12:08.838Z,26.17
2018-02-21T20:14:35.013Z,25.27
2018-02-21T20:17:01.166Z,27.23
2018-02-21T20:19:27.743Z,26.70
2018-02-21T20:21:54.653Z,25.37
2018-02-21T20:24:20.867Z,32.70
2018-02-21T20:26:47.009Z,28.13
2018-02-21T20:29:13.134Z,27.57
2018-02-21T20:31:39.303Z,28.97
2018-02-21T20:34:05.519Z,30.53
2018-02-21T20:36:31.683Z,24.40
2018-02-21T20:38:57.875Z,25.97
2018-02-21T20:41:24.804Z,29.37
2018-02-21T20:43:51.003Z,29.57
2018-02-21T20:46:19.255Z,27.77
2018-02-21T20:48:46.168Z,26.87
2018-02-21T20:51:13.433Z,28.40
2018-02-21T20:53:39.659Z,27.80
2018-02-21T20:56:05.837Z,29.83
2018-02-21T20:58:32.005Z,27.53
2018-02-21T21:00:58.921Z,26.47
2018-02-21T21:03:25.848Z,30.27
2018-02-21T21:05:53.144Z,28.17
2018-02-21T21:08:19.338Z,25.70
2018-02-21T21:10:48.992Z,27.87
2018-02-21T21:13:16.304Z,26.43
2018-02-21T21:15:43.290Z,27.13
2018-02-21T21:18:11.273Z,27.73
2018-02-21T21:20:51.631Z,28.03
2018-02-21T21:23:17.893Z,27.33
2018-02-21T21:25:44.181Z,26.73
2018-02-21T21:28:10.414Z,29.10
2018-02-21T21:30:37.388Z,25.57
2018-02-21T21:33:03.698Z,27.80
2018-02-21T21:35:29.918Z,27.43
2018-02-21T21:37:56.285Z,23.17
2018-02-21T21:40:22.545Z,24.47
2018-02-21T21:42:49.924Z,24.27
2018-02-21T21:45:16.981Z,26.97
2018-02-21T21:47:43.254Z,28.93
2018-02-21T21:50:09.534Z,28.50
2018-02-21T21:52:39.834Z,27.93
2018-02-21T21:55:10.329Z,25.57
2018-02-21T21:57:36.582Z,26.53
2018-02-21T22:00:02.896Z,27.30
2018-02-21T22:02:34.462Z,27.17
2018-02-21T22:05:00.731Z,28.00
2018-02-21T22:07:27.000Z,25.67
2018-02-21T22:09:54.049Z,25.17
2018-02-21T22:12:20.482Z,25.73
2018-02-21T22:14:50.868Z,26.43
2018-02-21T22:17:17.135Z,27.00
2018-02-21T22:19:43.358Z,25.93
2018-02-21T22:22:09.611Z,30.00
2018-02-21T22:24:35.927Z,28.00
2018-02-21T22:27:02.172Z,28.87
2018-02-21T22:29:28.486Z,31.97
2018-02-21T22:31:55.508Z,29.43
2018-02-21T22:34:21.753Z,30.43
2018-02-21T22:36:48.685Z,30.50
2018-02-21T22:39:15.027Z,31.80
2018-02-21T22:41:41.276Z,28.93
2018-02-21T22:44:08.360Z,30.83
2018-02-21T22:46:34.650Z,28.20
2018-02-21T22:49:00.942Z,31.77
2018-02-21T22:51:28.326Z,28.97
2018-02-21T22:53:54.666Z,32.00
2018-02-21T22:56:20.983Z,31.20
2018-02-21T22:58:47.261Z,26.03
2018-02-21T23:01:14.262Z,33.40
2018-02-21T23:03:40.570Z,31.67
2018-02-21T23:06:07.555Z,37.40
2018-02-21T23:08:33.823Z,31.73
2018-02-21T23:11:00.073Z,34.33
2018-02-21T23:13:26.381Z,32.00
2018-02-21T23:15:52.729Z,35.50
2018-02-21T23:18:20.759Z,36.27
2018-02-21T23:20:46.994Z,38.03
2018-02-21T23:23:13.321Z,35.97
2018-02-21T23:25:46.355Z,38.03
2018-02-21T23:28:13.525Z,32.03
2018-02-21T23:30:39.749Z,37.63
2018-02-21T23:33:07.083Z,35.83
2018-02-21T23:35:33.350Z,35.23
2018-02-21T23:38:01.657Z,31.07
2018-02-21T23:40:27.997Z,35.43
2018-02-21T23:42:54.992Z,36.87
2018-02-21T23:45:21.413Z,28.03
2018-02-21T23:47:48.394Z,35.30
2018-02-21T23:50:14.785Z,33.10
2018-02-21T23:52:41.179Z,31.60
2018-02-21T23:55:07.386Z,34.33
2018-02-21T23:57:34.430Z,28.60
